Terminal Aerodrome Forecast
Issued by NWS

Home | Current Version | Previous Version | Text Only | Print | Product List | Glossary Off
Versions: 1 2 3 4 5 6 7 8 9 10 11 12 13 14

000
FTUS43 KBIS 251124
TAFJMS
TAF
KJMS 251124Z 2512/2612 36004KT P6SM SCT050
     FM251600 36005KT P6SM VCSH BKN080 BKN200
      TEMPO 2516/2520 -SHRA BKN080
     FM252000 35007KT P6SM VCSH BKN100 BKN200
     FM252300 32007KT P6SM SCT130 BKN200=

USA.gov is the U.S. government's official web portal to all federal, state and local government web resources and services.